sensor_id;sensor_type;location;lat;lon;timestamp;P1;durP1;ratioP1;P2;durP2;ratioP2
20855;SDS011;10588;49.542;8.444;2022-07-29T00:01:09;2.38;;;1.05;;
20855;SDS011;10588;49.542;8.444;2022-07-29T00:03:40;1.90;;;0.98;;
20855;SDS011;10588;49.542;8.444;2022-07-29T00:06:05;1.92;;;1.10;;
20855;SDS011;10588;49.542;8.444;2022-07-29T00:08:31;2.70;;;1.13;;
20855;SDS011;10588;49.542;8.444;2022-07-29T00:10:56;1.65;;;1.02;;
20855;SDS011;10588;49.542;8.444;2022-07-29T00:13:22;2.50;;;1.00;;
20855;SDS011;10588;49.542;8.444;2022-07-29T00:15:48;1.67;;;1.20;;
20855;SDS011;10588;49.542;8.444;2022-07-29T00:18:13;1.23;;;1.08;;
20855;SDS011;10588;49.542;8.444;2022-07-29T00:20:39;1.88;;;1.17;;
20855;SDS011;10588;49.542;8.444;2022-07-29T00:23:04;1.42;;;0.93;;
20855;SDS011;10588;49.542;8.444;2022-07-29T00:25:31;3.72;;;1.00;;
20855;SDS011;10588;49.542;8.444;2022-07-29T00:27:57;3.75;;;1.13;;
20855;SDS011;10588;49.542;8.444;2022-07-29T00:30:23;1.55;;;0.98;;
20855;SDS011;10588;49.542;8.444;2022-07-29T00:32:50;2.72;;;1.33;;
20855;SDS011;10588;49.542;8.444;2022-07-29T00:35:15;2.38;;;1.10;;
20855;SDS011;10588;49.542;8.444;2022-07-29T00:38:01;3.67;;;1.20;;
20855;SDS011;10588;49.542;8.444;2022-07-29T00:40:27;2.53;;;1.00;;
20855;SDS011;10588;49.542;8.444;2022-07-29T00:42:54;2.92;;;1.08;;
20855;SDS011;10588;49.542;8.444;2022-07-29T00:45:21;1.52;;;1.00;;
20855;SDS011;10588;49.542;8.444;2022-07-29T00:47:47;1.60;;;1.00;;
20855;SDS011;10588;49.542;8.444;2022-07-29T00:50:14;2.10;;;1.00;;
20855;SDS011;10588;49.542;8.444;2022-07-29T00:52:40;2.78;;;1.05;;
20855;SDS011;10588;49.542;8.444;2022-07-29T00:55:09;2.47;;;1.40;;
20855;SDS011;10588;49.542;8.444;2022-07-29T00:57:36;3.50;;;1.52;;
20855;SDS011;10588;49.542;8.444;2022-07-29T01:00:03;1.75;;;1.17;;
20855;SDS011;10588;49.542;8.444;2022-07-29T01:02:31;3.90;;;1.20;;
20855;SDS011;10588;49.542;8.444;2022-07-29T01:04:56;1.65;;;1.10;;
20855;SDS011;10588;49.542;8.444;2022-07-29T01:07:23;2.63;;;1.30;;
20855;SDS011;10588;49.542;8.444;2022-07-29T01:09:50;1.88;;;1.20;;
20855;SDS011;10588;49.542;8.444;2022-07-29T01:12:19;1.70;;;1.15;;
20855;SDS011;10588;49.542;8.444;2022-07-29T01:14:48;1.42;;;1.15;;
20855;SDS011;10588;49.542;8.444;2022-07-29T01:20:17;1.90;;;1.10;;
20855;SDS011;10588;49.542;8.444;2022-07-29T01:31:03;1.98;;;1.20;;
20855;SDS011;10588;49.542;8.444;2022-07-29T01:33:33;1.45;;;0.95;;
20855;SDS011;10588;49.542;8.444;2022-07-29T01:36:19;1.33;;;1.00;;
20855;SDS011;10588;49.542;8.444;2022-07-29T01:38:59;1.27;;;1.00;;
20855;SDS011;10588;49.542;8.444;2022-07-29T01:41:31;1.73;;;1.05;;
20855;SDS011;10588;49.542;8.444;2022-07-29T01:44:10;1.80;;;1.23;;
20855;SDS011;10588;49.542;8.444;2022-07-29T01:46:41;2.42;;;1.10;;
20855;SDS011;10588;49.542;8.444;2022-07-29T01:49:17;1.15;;;0.90;;
20855;SDS011;10588;49.542;8.444;2022-07-29T01:51:47;2.30;;;1.25;;
20855;SDS011;10588;49.542;8.444;2022-07-29T01:54:30;1.35;;;1.15;;
20855;SDS011;10588;49.542;8.444;2022-07-29T01:57:02;1.50;;;1.13;;
20855;SDS011;10588;49.542;8.444;2022-07-29T01:59:34;1.33;;;1.10;;
20855;SDS011;10588;49.542;8.444;2022-07-29T02:02:02;2.13;;;1.15;;
20855;SDS011;10588;49.542;8.444;2022-07-29T02:04:29;1.95;;;1.08;;
20855;SDS011;10588;49.542;8.444;2022-07-29T02:07:00;2.38;;;1.10;;
20855;SDS011;10588;49.542;8.444;2022-07-29T02:09:29;1.83;;;1.00;;
20855;SDS011;10588;49.542;8.444;2022-07-29T02:11:56;3.88;;;1.17;;
20855;SDS011;10588;49.542;8.444;2022-07-29T02:14:25;1.25;;;0.95;;
20855;SDS011;10588;49.542;8.444;2022-07-29T02:16:54;1.92;;;1.10;;
20855;SDS011;10588;49.542;8.444;2022-07-29T02:19:23;1.85;;;1.10;;
20855;SDS011;10588;49.542;8.444;2022-07-29T02:21:52;1.55;;;1.10;;
20855;SDS011;10588;49.542;8.444;2022-07-29T02:24:19;1.55;;;1.05;;
20855;SDS011;10588;49.542;8.444;2022-07-29T02:26:49;1.92;;;1.20;;
20855;SDS011;10588;49.542;8.444;2022-07-29T02:29:16;1.95;;;1.25;;
20855;SDS011;10588;49.542;8.444;2022-07-29T02:31:46;1.90;;;1.27;;
20855;SDS011;10588;49.542;8.444;2022-07-29T02:34:14;4.72;;;1.17;;
20855;SDS011;10588;49.542;8.444;2022-07-29T02:36:42;1.10;;;0.90;;
20855;SDS011;10588;49.542;8.444;2022-07-29T02:39:12;2.40;;;1.33;;
20855;SDS011;10588;49.542;8.444;2022-07-29T02:41:47;3.42;;;1.13;;
20855;SDS011;10588;49.542;8.444;2022-07-29T02:44:18;1.42;;;0.98;;
20855;SDS011;10588;49.542;8.444;2022-07-29T02:46:53;1.95;;;1.02;;
20855;SDS011;10588;49.542;8.444;2022-07-29T02:49:37;1.88;;;1.13;;
20855;SDS011;10588;49.542;8.444;2022-07-29T02:52:26;2.35;;;1.20;;
20855;SDS011;10588;49.542;8.444;2022-07-29T02:55:15;1.65;;;1.02;;
20855;SDS011;10588;49.542;8.444;2022-07-29T02:57:46;3.60;;;1.23;;
20855;SDS011;10588;49.542;8.444;2022-07-29T03:00:16;3.50;;;1.10;;
20855;SDS011;10588;49.542;8.444;2022-07-29T03:02:44;1.33;;;1.00;;
20855;SDS011;10588;49.542;8.444;2022-07-29T03:05:15;1.63;;;0.95;;
20855;SDS011;10588;49.542;8.444;2022-07-29T03:07:51;1.48;;;1.00;;
20855;SDS011;10588;49.542;8.444;2022-07-29T03:10:20;2.65;;;1.20;;
20855;SDS011;10588;49.542;8.444;2022-07-29T03:12:48;2.47;;;1.20;;
20855;SDS011;10588;49.542;8.444;2022-07-29T03:15:14;2.05;;;1.00;;
20855;SDS011;10588;49.542;8.444;2022-07-29T03:17:40;2.03;;;1.13;;
20855;SDS011;10588;49.542;8.444;2022-07-29T03:20:08;3.70;;;1.60;;
20855;SDS011;10588;49.542;8.444;2022-07-29T03:22:41;1.63;;;0.95;;
20855;SDS011;10588;49.542;8.444;2022-07-29T03:25:15;1.95;;;0.98;;
20855;SDS011;10588;49.542;8.444;2022-07-29T03:27:42;1.80;;;1.05;;
20855;SDS011;10588;49.542;8.444;2022-07-29T03:30:09;3.00;;;0.98;;
20855;SDS011;10588;49.542;8.444;2022-07-29T03:32:36;1.55;;;1.00;;
20855;SDS011;10588;49.542;8.444;2022-07-29T03:35:02;1.65;;;1.00;;
20855;SDS011;10588;49.542;8.444;2022-07-29T03:37:28;1.65;;;1.00;;
20855;SDS011;10588;49.542;8.444;2022-07-29T03:39:55;1.95;;;1.17;;
20855;SDS011;10588;49.542;8.444;2022-07-29T03:42:23;2.33;;;1.15;;
20855;SDS011;10588;49.542;8.444;2022-07-29T03:44:52;3.28;;;0.93;;
20855;SDS011;10588;49.542;8.444;2022-07-29T03:47:19;6.93;;;1.20;;
20855;SDS011;10588;49.542;8.444;2022-07-29T03:49:48;1.50;;;1.10;;
20855;SDS011;10588;49.542;8.444;2022-07-29T03:52:16;2.03;;;0.98;;
20855;SDS011;10588;49.542;8.444;2022-07-29T03:54:43;3.05;;;1.05;;
20855;SDS011;10588;49.542;8.444;2022-07-29T03:57:09;1.23;;;1.00;;
20855;SDS011;10588;49.542;8.444;2022-07-29T03:59:36;1.67;;;1.10;;
20855;SDS011;10588;49.542;8.444;2022-07-29T04:02:04;1.95;;;1.30;;
20855;SDS011;10588;49.542;8.444;2022-07-29T04:04:33;2.58;;;1.23;;
20855;SDS011;10588;49.542;8.444;2022-07-29T04:06:59;3.20;;;1.20;;
20855;SDS011;10588;49.542;8.444;2022-07-29T04:09:27;2.40;;;0.98;;
20855;SDS011;10588;49.542;8.444;2022-07-29T04:11:52;1.83;;;0.85;;
20855;SDS011;10588;49.542;8.444;2022-07-29T04:14:18;2.67;;;1.02;;
20855;SDS011;10588;49.542;8.444;2022-07-29T04:16:45;3.53;;;1.17;;
20855;SDS011;10588;49.542;8.444;2022-07-29T04:19:11;3.47;;;0.90;;
20855;SDS011;10588;49.542;8.444;2022-07-29T04:21:41;3.83;;;0.85;;
20855;SDS011;10588;49.542;8.444;2022-07-29T04:24:06;2.03;;;0.75;;
20855;SDS011;10588;49.542;8.444;2022-07-29T04:26:34;3.10;;;1.08;;
20855;SDS011;10588;49.542;8.444;2022-07-29T04:29:00;1.83;;;0.90;;
20855;SDS011;10588;49.542;8.444;2022-07-29T04:31:26;2.47;;;0.90;;
20855;SDS011;10588;49.542;8.444;2022-07-29T04:33:51;2.17;;;0.90;;
20855;SDS011;10588;49.542;8.444;2022-07-29T04:36:17;1.77;;;1.08;;
20855;SDS011;10588;49.542;8.444;2022-07-29T04:38:43;1.60;;;0.90;;
20855;SDS011;10588;49.542;8.444;2022-07-29T04:41:08;1.35;;;0.75;;
20855;SDS011;10588;49.542;8.444;2022-07-29T04:43:34;1.60;;;0.98;;
20855;SDS011;10588;49.542;8.444;2022-07-29T04:46:01;2.88;;;0.93;;
20855;SDS011;10588;49.542;8.444;2022-07-29T04:48:27;1.40;;;0.98;;
20855;SDS011;10588;49.542;8.444;2022-07-29T04:50:54;3.38;;;0.93;;
20855;SDS011;10588;49.542;8.444;2022-07-29T04:53:19;3.42;;;1.02;;
20855;SDS011;10588;49.542;8.444;2022-07-29T04:55:45;2.58;;;1.10;;
20855;SDS011;10588;49.542;8.444;2022-07-29T04:58:11;1.00;;;0.80;;
20855;SDS011;10588;49.542;8.444;2022-07-29T05:00:37;1.92;;;1.20;;
20855;SDS011;10588;49.542;8.444;2022-07-29T05:03:03;2.00;;;0.90;;
20855;SDS011;10588;49.542;8.444;2022-07-29T05:05:29;1.80;;;0.98;;
20855;SDS011;10588;49.542;8.444;2022-07-29T05:07:55;1.58;;;1.00;;
20855;SDS011;10588;49.542;8.444;2022-07-29T05:10:21;1.83;;;0.98;;
20855;SDS011;10588;49.542;8.444;2022-07-29T05:12:47;1.48;;;0.88;;
20855;SDS011;10588;49.542;8.444;2022-07-29T05:15:12;2.13;;;1.00;;
20855;SDS011;10588;49.542;8.444;2022-07-29T05:17:38;2.63;;;1.20;;
20855;SDS011;10588;49.542;8.444;2022-07-29T05:20:04;3.17;;;1.05;;
20855;SDS011;10588;49.542;8.444;2022-07-29T05:22:32;1.95;;;0.90;;
20855;SDS011;10588;49.542;8.444;2022-07-29T05:24:58;1.80;;;0.95;;
20855;SDS011;10588;49.542;8.444;2022-07-29T05:27:24;2.20;;;0.90;;
20855;SDS011;10588;49.542;8.444;2022-07-29T05:29:50;1.25;;;0.77;;
20855;SDS011;10588;49.542;8.444;2022-07-29T05:32:16;1.92;;;0.90;;
20855;SDS011;10588;49.542;8.444;2022-07-29T05:34:41;0.88;;;0.80;;
20855;SDS011;10588;49.542;8.444;2022-07-29T05:37:07;1.48;;;0.85;;
20855;SDS011;10588;49.542;8.444;2022-07-29T05:39:33;1.42;;;0.60;;
20855;SDS011;10588;49.542;8.444;2022-07-29T05:41:58;7.50;;;1.20;;
20855;SDS011;10588;49.542;8.444;2022-07-29T05:44:24;3.35;;;0.88;;
20855;SDS011;10588;49.542;8.444;2022-07-29T05:46:49;3.20;;;0.75;;
20855;SDS011;10588;49.542;8.444;2022-07-29T05:49:15;3.97;;;0.95;;
20855;SDS011;10588;49.542;8.444;2022-07-29T05:51:41;2.20;;;0.85;;
20855;SDS011;10588;49.542;8.444;2022-07-29T05:54:06;1.95;;;1.00;;
20855;SDS011;10588;49.542;8.444;2022-07-29T05:56:35;1.63;;;0.90;;
20855;SDS011;10588;49.542;8.444;2022-07-29T05:59:01;3.50;;;0.90;;
20855;SDS011;10588;49.542;8.444;2022-07-29T06:01:26;1.10;;;0.80;;
20855;SDS011;10588;49.542;8.444;2022-07-29T06:03:52;1.15;;;0.63;;
20855;SDS011;10588;49.542;8.444;2022-07-29T06:06:17;0.75;;;0.73;;
20855;SDS011;10588;49.542;8.444;2022-07-29T06:08:43;1.02;;;0.63;;
20855;SDS011;10588;49.542;8.444;2022-07-29T06:11:09;5.30;;;0.80;;
20855;SDS011;10588;49.542;8.444;2022-07-29T06:13:35;1.40;;;0.75;;
20855;SDS011;10588;49.542;8.444;2022-07-29T06:16:00;1.10;;;0.70;;
20855;SDS011;10588;49.542;8.444;2022-07-29T06:18:27;1.10;;;0.70;;
20855;SDS011;10588;49.542;8.444;2022-07-29T06:20:53;0.80;;;0.80;;
20855;SDS011;10588;49.542;8.444;2022-07-29T06:23:19;2.60;;;0.80;;
20855;SDS011;10588;49.542;8.444;2022-07-29T06:25:45;1.52;;;0.90;;
20855;SDS011;10588;49.542;8.444;2022-07-29T06:28:11;4.05;;;1.00;;
20855;SDS011;10588;49.542;8.444;2022-07-29T06:30:38;1.75;;;0.80;;
20855;SDS011;10588;49.542;8.444;2022-07-29T06:33:05;1.77;;;0.68;;
20855;SDS011;10588;49.542;8.444;2022-07-29T06:35:34;3.30;;;0.93;;
20855;SDS011;10588;49.542;8.444;2022-07-29T06:38:01;2.42;;;0.98;;
20855;SDS011;10588;49.542;8.444;2022-07-29T06:40:29;5.13;;;1.05;;
20855;SDS011;10588;49.542;8.444;2022-07-29T06:43:13;2.85;;;1.00;;
20855;SDS011;10588;49.542;8.444;2022-07-29T06:45:38;1.90;;;0.98;;
20855;SDS011;10588;49.542;8.444;2022-07-29T06:48:06;2.20;;;1.10;;
20855;SDS011;10588;49.542;8.444;2022-07-29T06:50:31;2.88;;;0.80;;
20855;SDS011;10588;49.542;8.444;2022-07-29T06:52:57;1.75;;;0.70;;
20855;SDS011;10588;49.542;8.444;2022-07-29T06:55:22;2.13;;;0.88;;
20855;SDS011;10588;49.542;8.444;2022-07-29T06:57:49;3.50;;;1.05;;
20855;SDS011;10588;49.542;8.444;2022-07-29T07:00:15;1.88;;;0.95;;
20855;SDS011;10588;49.542;8.444;2022-07-29T07:02:42;1.48;;;0.90;;
20855;SDS011;10588;49.542;8.444;2022-07-29T07:05:08;3.38;;;0.90;;
20855;SDS011;10588;49.542;8.444;2022-07-29T07:07:33;2.75;;;1.05;;
20855;SDS011;10588;49.542;8.444;2022-07-29T07:09:59;1.83;;;0.90;;
20855;SDS011;10588;49.542;8.444;2022-07-29T07:12:25;2.40;;;0.73;;
20855;SDS011;10588;49.542;8.444;2022-07-29T07:14:52;1.20;;;1.00;;
20855;SDS011;10588;49.542;8.444;2022-07-29T07:17:18;3.13;;;1.00;;
20855;SDS011;10588;49.542;8.444;2022-07-29T07:19:43;1.30;;;1.10;;
20855;SDS011;10588;49.542;8.444;2022-07-29T07:22:10;1.83;;;1.00;;
20855;SDS011;10588;49.542;8.444;2022-07-29T07:24:36;1.25;;;0.90;;
20855;SDS011;10588;49.542;8.444;2022-07-29T07:27:02;1.70;;;0.93;;
20855;SDS011;10588;49.542;8.444;2022-07-29T07:29:29;1.70;;;0.85;;
20855;SDS011;10588;49.542;8.444;2022-07-29T07:31:57;2.65;;;1.00;;
20855;SDS011;10588;49.542;8.444;2022-07-29T07:34:22;1.80;;;1.05;;
20855;SDS011;10588;49.542;8.444;2022-07-29T07:36:48;1.60;;;1.20;;
20855;SDS011;10588;49.542;8.444;2022-07-29T07:39:14;2.40;;;0.95;;
20855;SDS011;10588;49.542;8.444;2022-07-29T07:41:39;1.10;;;1.00;;
20855;SDS011;10588;49.542;8.444;2022-07-29T07:44:05;1.92;;;0.85;;
20855;SDS011;10588;49.542;8.444;2022-07-29T07:46:31;3.00;;;1.25;;
20855;SDS011;10588;49.542;8.444;2022-07-29T07:48:56;1.80;;;1.15;;
20855;SDS011;10588;49.542;8.444;2022-07-29T07:51:22;2.55;;;1.25;;
20855;SDS011;10588;49.542;8.444;2022-07-29T07:53:47;2.30;;;1.40;;
20855;SDS011;10588;49.542;8.444;2022-07-29T07:56:15;3.45;;;1.38;;
20855;SDS011;10588;49.542;8.444;2022-07-29T07:58:41;2.20;;;1.15;;
20855;SDS011;10588;49.542;8.444;2022-07-29T08:01:08;1.80;;;1.20;;
20855;SDS011;10588;49.542;8.444;2022-07-29T08:03:34;1.48;;;1.00;;
20855;SDS011;10588;49.542;8.444;2022-07-29T08:06:00;3.85;;;1.30;;
20855;SDS011;10588;49.542;8.444;2022-07-29T08:08:26;2.85;;;1.38;;
20855;SDS011;10588;49.542;8.444;2022-07-29T08:10:52;1.77;;;1.17;;
20855;SDS011;10588;49.542;8.444;2022-07-29T08:13:18;1.60;;;1.20;;
20855;SDS011;10588;49.542;8.444;2022-07-29T08:15:45;1.92;;;1.33;;
20855;SDS011;10588;49.542;8.444;2022-07-29T08:18:12;1.50;;;1.10;;
20855;SDS011;10588;49.542;8.444;2022-07-29T08:20:38;1.63;;;1.25;;
20855;SDS011;10588;49.542;8.444;2022-07-29T08:23:05;2.22;;;1.20;;
20855;SDS011;10588;49.542;8.444;2022-07-29T08:25:34;1.42;;;1.20;;
20855;SDS011;10588;49.542;8.444;2022-07-29T08:28:00;2.50;;;1.02;;
20855;SDS011;10588;49.542;8.444;2022-07-29T08:30:26;1.25;;;1.15;;
20855;SDS011;10588;49.542;8.444;2022-07-29T08:32:51;3.35;;;1.10;;
20855;SDS011;10588;49.542;8.444;2022-07-29T08:35:18;1.70;;;1.20;;
20855;SDS011;10588;49.542;8.444;2022-07-29T08:37:44;1.63;;;1.30;;
20855;SDS011;10588;49.542;8.444;2022-07-29T08:40:10;1.65;;;1.20;;
20855;SDS011;10588;49.542;8.444;2022-07-29T08:42:36;3.05;;;1.35;;
20855;SDS011;10588;49.542;8.444;2022-07-29T08:45:02;2.33;;;1.55;;
20855;SDS011;10588;49.542;8.444;2022-07-29T08:47:29;4.63;;;1.48;;
20855;SDS011;10588;49.542;8.444;2022-07-29T08:49:55;2.35;;;1.40;;
20855;SDS011;10588;49.542;8.444;2022-07-29T08:52:20;1.77;;;1.40;;
20855;SDS011;10588;49.542;8.444;2022-07-29T08:54:52;1.85;;;1.40;;
20855;SDS011;10588;49.542;8.444;2022-07-29T08:57:19;1.90;;;1.23;;
20855;SDS011;10588;49.542;8.444;2022-07-29T08:59:47;5.90;;;1.33;;
20855;SDS011;10588;49.542;8.444;2022-07-29T09:02:20;3.13;;;1.35;;
20855;SDS011;10588;49.542;8.444;2022-07-29T09:04:48;1.45;;;1.10;;
20855;SDS011;10588;49.542;8.444;2022-07-29T09:07:16;1.90;;;1.45;;
20855;SDS011;10588;49.542;8.444;2022-07-29T09:09:44;2.20;;;1.40;;
20855;SDS011;10588;49.542;8.444;2022-07-29T09:12:10;2.55;;;1.20;;
20855;SDS011;10588;49.542;8.444;2022-07-29T09:14:39;4.00;;;1.60;;
20855;SDS011;10588;49.542;8.444;2022-07-29T09:17:06;4.93;;;1.35;;
20855;SDS011;10588;49.542;8.444;2022-07-29T09:19:33;2.40;;;1.40;;
20855;SDS011;10588;49.542;8.444;2022-07-29T09:22:00;4.00;;;1.60;;
20855;SDS011;10588;49.542;8.444;2022-07-29T09:24:41;2.28;;;1.30;;
20855;SDS011;10588;49.542;8.444;2022-07-29T09:29:44;2.78;;;1.40;;
20855;SDS011;10588;49.542;8.444;2022-07-29T09:32:09;2.45;;;1.50;;
20855;SDS011;10588;49.542;8.444;2022-07-29T09:34:35;2.03;;;1.70;;
20855;SDS011;10588;49.542;8.444;2022-07-29T09:37:02;2.30;;;1.63;;
20855;SDS011;10588;49.542;8.444;2022-07-29T09:39:38;2.90;;;1.73;;
20855;SDS011;10588;49.542;8.444;2022-07-29T09:42:10;2.63;;;1.80;;
20855;SDS011;10588;49.542;8.444;2022-07-29T09:44:45;2.05;;;1.60;;
20855;SDS011;10588;49.542;8.444;2022-07-29T09:47:15;3.67;;;1.80;;
20855;SDS011;10588;49.542;8.444;2022-07-29T09:49:57;3.35;;;1.50;;
20855;SDS011;10588;49.542;8.444;2022-07-29T09:52:26;5.53;;;1.80;;
20855;SDS011;10588;49.542;8.444;2022-07-29T09:54:52;2.72;;;1.73;;
20855;SDS011;10588;49.542;8.444;2022-07-29T09:57:28;2.40;;;1.75;;
20855;SDS011;10588;49.542;8.444;2022-07-29T10:00:08;4.00;;;2.03;;
20855;SDS011;10588;49.542;8.444;2022-07-29T10:02:37;2.05;;;1.75;;
20855;SDS011;10588;49.542;8.444;2022-07-29T10:05:06;4.30;;;1.63;;
20855;SDS011;10588;49.542;8.444;2022-07-29T10:07:48;5.78;;;1.70;;
20855;SDS011;10588;49.542;8.444;2022-07-29T10:10:30;2.30;;;1.83;;
20855;SDS011;10588;49.542;8.444;2022-07-29T10:13:06;3.67;;;2.13;;
20855;SDS011;10588;49.542;8.444;2022-07-29T10:15:35;2.05;;;1.83;;
20855;SDS011;10588;49.542;8.444;2022-07-29T10:18:04;3.63;;;1.98;;
20855;SDS011;10588;49.542;8.444;2022-07-29T10:20:30;3.47;;;1.63;;
20855;SDS011;10588;49.542;8.444;2022-07-29T10:22:56;2.10;;;1.70;;
20855;SDS011;10588;49.542;8.444;2022-07-29T10:25:24;2.53;;;1.95;;
20855;SDS011;10588;49.542;8.444;2022-07-29T10:27:50;3.72;;;2.13;;
20855;SDS011;10588;49.542;8.444;2022-07-29T10:30:17;2.60;;;1.75;;
20855;SDS011;10588;49.542;8.444;2022-07-29T10:33:07;3.30;;;1.85;;
20855;SDS011;10588;49.542;8.444;2022-07-29T10:44:35;2.53;;;2.00;;
20855;SDS011;10588;49.542;8.444;2022-07-29T10:47:06;2.85;;;1.88;;
20855;SDS011;10588;49.542;8.444;2022-07-29T10:49:32;2.53;;;1.88;;
20855;SDS011;10588;49.542;8.444;2022-07-29T11:05:03;4.75;;;1.98;;
20855;SDS011;10588;49.542;8.444;2022-07-29T11:07:31;2.15;;;1.88;;
20855;SDS011;10588;49.542;8.444;2022-07-29T11:20:35;4.63;;;1.92;;
20855;SDS011;10588;49.542;8.444;2022-07-29T11:31:57;2.42;;;1.90;;
20855;SDS011;10588;49.542;8.444;2022-07-29T11:50:13;2.38;;;1.80;;
20855;SDS011;10588;49.542;8.444;2022-07-29T11:52:45;2.53;;;1.73;;
20855;SDS011;10588;49.542;8.444;2022-07-29T11:55:22;3.38;;;1.65;;
20855;SDS011;10588;49.542;8.444;2022-07-29T11:57:52;5.47;;;1.95;;
20855;SDS011;10588;49.542;8.444;2022-07-29T12:00:26;2.28;;;1.85;;
20855;SDS011;10588;49.542;8.444;2022-07-29T12:03:07;3.38;;;2.00;;
20855;SDS011;10588;49.542;8.444;2022-07-29T12:05:41;4.18;;;2.00;;
20855;SDS011;10588;49.542;8.444;2022-07-29T12:10:50;2.33;;;1.70;;
20855;SDS011;10588;49.542;8.444;2022-07-29T12:13:18;3.28;;;1.85;;
20855;SDS011;10588;49.542;8.444;2022-07-29T12:16:00;3.90;;;1.60;;
20855;SDS011;10588;49.542;8.444;2022-07-29T12:18:29;3.13;;;1.85;;
20855;SDS011;10588;49.542;8.444;2022-07-29T12:21:03;2.13;;;1.85;;
20855;SDS011;10588;49.542;8.444;2022-07-29T12:23:29;3.38;;;2.03;;
20855;SDS011;10588;49.542;8.444;2022-07-29T12:25:59;3.00;;;1.75;;
20855;SDS011;10588;49.542;8.444;2022-07-29T12:28:36;3.60;;;1.98;;
20855;SDS011;10588;49.542;8.444;2022-07-29T12:31:15;3.20;;;1.92;;
20855;SDS011;10588;49.542;8.444;2022-07-29T12:33:41;3.90;;;1.70;;
20855;SDS011;10588;49.542;8.444;2022-07-29T12:36:10;3.50;;;2.00;;
20855;SDS011;10588;49.542;8.444;2022-07-29T12:38:40;3.20;;;1.85;;
20855;SDS011;10588;49.542;8.444;2022-07-29T12:41:05;2.10;;;1.70;;
20855;SDS011;10588;49.542;8.444;2022-07-29T12:43:31;2.97;;;1.77;;
20855;SDS011;10588;49.542;8.444;2022-07-29T12:45:57;1.88;;;1.50;;
20855;SDS011;10588;49.542;8.444;2022-07-29T12:48:38;3.78;;;2.10;;
20855;SDS011;10588;49.542;8.444;2022-07-29T12:51:08;2.95;;;1.98;;
20855;SDS011;10588;49.542;8.444;2022-07-29T12:53:35;2.40;;;1.80;;
20855;SDS011;10588;49.542;8.444;2022-07-29T12:56:01;2.67;;;1.92;;
20855;SDS011;10588;49.542;8.444;2022-07-29T12:58:49;2.95;;;1.63;;
20855;SDS011;10588;49.542;8.444;2022-07-29T13:01:15;1.95;;;1.70;;
20855;SDS011;10588;49.542;8.444;2022-07-29T13:03:48;2.67;;;1.80;;
20855;SDS011;10588;49.542;8.444;2022-07-29T13:06:42;4.65;;;1.70;;
20855;SDS011;10588;49.542;8.444;2022-07-29T13:14:30;2.17;;;1.90;;
20855;SDS011;10588;49.542;8.444;2022-07-29T13:17:06;2.03;;;1.58;;
20855;SDS011;10588;49.542;8.444;2022-07-29T13:19:39;5.05;;;1.80;;
20855;SDS011;10588;49.542;8.444;2022-07-29T13:22:15;2.25;;;1.60;;
20855;SDS011;10588;49.542;8.444;2022-07-29T13:24:59;2.05;;;1.52;;
20855;SDS011;10588;49.542;8.444;2022-07-29T13:27:28;4.00;;;1.60;;
20855;SDS011;10588;49.542;8.444;2022-07-29T13:29:55;2.42;;;1.85;;
20855;SDS011;10588;49.542;8.444;2022-07-29T13:32:24;2.75;;;1.77;;
20855;SDS011;10588;49.542;8.444;2022-07-29T13:34:52;3.88;;;1.60;;
20855;SDS011;10588;49.542;8.444;2022-07-29T13:37:18;1.83;;;1.45;;
20855;SDS011;10588;49.542;8.444;2022-07-29T13:39:44;2.28;;;1.45;;
20855;SDS011;10588;49.542;8.444;2022-07-29T13:42:09;3.63;;;1.92;;
20855;SDS011;10588;49.542;8.444;2022-07-29T13:44:38;4.95;;;1.60;;
20855;SDS011;10588;49.542;8.444;2022-07-29T13:47:04;2.53;;;1.80;;
20855;SDS011;10588;49.542;8.444;2022-07-29T13:49:30;3.85;;;1.50;;
20855;SDS011;10588;49.542;8.444;2022-07-29T13:51:57;2.30;;;1.58;;
20855;SDS011;10588;49.542;8.444;2022-07-29T13:54:23;1.98;;;1.50;;
20855;SDS011;10588;49.542;8.444;2022-07-29T13:56:49;3.40;;;1.45;;
20855;SDS011;10588;49.542;8.444;2022-07-29T13:59:15;1.58;;;1.38;;
20855;SDS011;10588;49.542;8.444;2022-07-29T14:01:41;1.80;;;1.38;;
20855;SDS011;10588;49.542;8.444;2022-07-29T14:04:07;2.17;;;1.42;;
20855;SDS011;10588;49.542;8.444;2022-07-29T14:06:33;2.83;;;1.20;;
20855;SDS011;10588;49.542;8.444;2022-07-29T14:08:59;2.53;;;1.33;;
20855;SDS011;10588;49.542;8.444;2022-07-29T14:11:25;3.35;;;1.30;;
20855;SDS011;10588;49.542;8.444;2022-07-29T14:13:50;1.90;;;1.40;;
20855;SDS011;10588;49.542;8.444;2022-07-29T14:16:16;1.52;;;1.30;;
20855;SDS011;10588;49.542;8.444;2022-07-29T14:18:42;1.42;;;1.20;;
20855;SDS011;10588;49.542;8.444;2022-07-29T14:21:07;1.75;;;1.38;;
20855;SDS011;10588;49.542;8.444;2022-07-29T14:23:33;1.45;;;1.35;;
20855;SDS011;10588;49.542;8.444;2022-07-29T14:25:59;2.92;;;1.30;;
20855;SDS011;10588;49.542;8.444;2022-07-29T14:28:25;1.42;;;1.27;;
20855;SDS011;10588;49.542;8.444;2022-07-29T14:30:50;1.80;;;1.50;;
20855;SDS011;10588;49.542;8.444;2022-07-29T14:33:16;1.25;;;1.15;;
20855;SDS011;10588;49.542;8.444;2022-07-29T14:35:42;1.80;;;1.35;;
20855;SDS011;10588;49.542;8.444;2022-07-29T14:38:08;2.20;;;1.10;;
20855;SDS011;10588;49.542;8.444;2022-07-29T14:40:37;6.53;;;1.55;;
20855;SDS011;10588;49.542;8.444;2022-07-29T14:43:02;2.17;;;1.25;;
20855;SDS011;10588;49.542;8.444;2022-07-29T14:45:28;1.30;;;1.17;;
20855;SDS011;10588;49.542;8.444;2022-07-29T14:47:54;1.63;;;1.40;;
20855;SDS011;10588;49.542;8.444;2022-07-29T14:50:19;1.52;;;1.17;;
20855;SDS011;10588;49.542;8.444;2022-07-29T14:52:45;1.33;;;1.00;;
20855;SDS011;10588;49.542;8.444;2022-07-29T14:55:11;3.75;;;1.20;;
20855;SDS011;10588;49.542;8.444;2022-07-29T14:57:38;1.77;;;1.13;;
20855;SDS011;10588;49.542;8.444;2022-07-29T15:00:04;1.98;;;1.20;;
20855;SDS011;10588;49.542;8.444;2022-07-29T15:02:32;2.50;;;1.30;;
20855;SDS011;10588;49.542;8.444;2022-07-29T15:04:58;1.80;;;1.25;;
20855;SDS011;10588;49.542;8.444;2022-07-29T15:07:23;1.98;;;1.20;;
20855;SDS011;10588;49.542;8.444;2022-07-29T15:09:49;2.45;;;1.25;;
20855;SDS011;10588;49.542;8.444;2022-07-29T15:12:14;5.90;;;1.10;;
20855;SDS011;10588;49.542;8.444;2022-07-29T15:14:40;1.38;;;0.98;;
20855;SDS011;10588;49.542;8.444;2022-07-29T15:17:06;1.60;;;1.08;;
20855;SDS011;10588;49.542;8.444;2022-07-29T15:19:32;5.22;;;0.85;;
20855;SDS011;10588;49.542;8.444;2022-07-29T15:21:57;1.73;;;0.93;;
20855;SDS011;10588;49.542;8.444;2022-07-29T15:24:23;1.48;;;1.10;;
20855;SDS011;10588;49.542;8.444;2022-07-29T15:26:49;1.10;;;0.90;;
20855;SDS011;10588;49.542;8.444;2022-07-29T15:29:15;1.73;;;1.08;;
20855;SDS011;10588;49.542;8.444;2022-07-29T15:31:40;4.40;;;0.98;;
20855;SDS011;10588;49.542;8.444;2022-07-29T15:34:06;1.85;;;1.00;;
20855;SDS011;10588;49.542;8.444;2022-07-29T15:36:32;2.42;;;1.00;;
20855;SDS011;10588;49.542;8.444;2022-07-29T15:38:59;1.27;;;0.90;;
20855;SDS011;10588;49.542;8.444;2022-07-29T15:41:25;1.00;;;0.90;;
20855;SDS011;10588;49.542;8.444;2022-07-29T15:43:50;1.45;;;0.80;;
20855;SDS011;10588;49.542;8.444;2022-07-29T15:46:16;1.00;;;0.80;;
20855;SDS011;10588;49.542;8.444;2022-07-29T15:49:02;1.73;;;0.90;;
20855;SDS011;10588;49.542;8.444;2022-07-29T15:51:30;0.93;;;0.70;;
20855;SDS011;10588;49.542;8.444;2022-07-29T15:54:08;1.20;;;0.75;;
20855;SDS011;10588;49.542;8.444;2022-07-29T15:56:37;3.10;;;1.08;;
20855;SDS011;10588;49.542;8.444;2022-07-29T15:59:05;2.13;;;1.08;;
20855;SDS011;10588;49.542;8.444;2022-07-29T16:01:31;1.92;;;0.90;;
20855;SDS011;10588;49.542;8.444;2022-07-29T16:03:57;1.80;;;0.90;;
20855;SDS011;10588;49.542;8.444;2022-07-29T16:06:23;1.38;;;0.93;;
20855;SDS011;10588;49.542;8.444;2022-07-29T16:08:49;5.57;;;1.00;;
20855;SDS011;10588;49.542;8.444;2022-07-29T16:11:15;1.30;;;0.90;;
20855;SDS011;10588;49.542;8.444;2022-07-29T16:13:40;12.68;;;1.48;;